Airfield :
LOGIN :

Register | Disclaimer

   EN    FR    IT 

 










Legend :    VFR   Marginal VFR   IFR   Intensive IFR   Very Intensive IFR
Visi :
Ceiling :
>= 8 km
>= 3000ft
5 to 8 km
1000 to 3000 ft
1500m to 5 km
500 to 1000 ft
800 to 1500m
200 to 500 ft
< 800m
< 200 ft
Symbols :   Thunderstorms  Fog  Heavy snow  Heavy precipitations  Wind > 20 kt
SIGMETs :     Misc.  Thunderstorms  Icing  Turbulence  Mountain Waves  Volcanic Ashes







- Airport Elevation : 138 ft
- IATA code : BIO


LEBB - Bilbao

CURRENT METAR :
  • 222030Z 30003KT 260V330 9999 FEW025 BKN035 19/15 Q1021 NOSIG

EXPIRED METARs :
  • 222000Z 31003KT 280V340 9999 SCT020 BKN033 19/15 Q1021 NOSIG
  • 221930Z 30002KT 9999 SCT020 BKN040 19/15 Q1020 NOSIG
  • 221900Z 30004KT 260V350 9999 SCT020 BKN040 19/15 Q1020 NOSIG
  • 221830Z 31006KT 260V340 9999 SCT020 BKN035 19/16 Q1020 NOSIG
  • 221800Z 32007KT 9999 SCT020 BKN030 BKN040 20/15 Q1019 NOSIG

TAF TAF LEBB
Valid from the 22 at 18:00 until the 23 at 18:00 UTC


221700Z 2218/2318 33010KT CAVOK TX26/2315Z TN15/2306Z
BECMG 2220/2224 25004KT
BECMG 2310/2312 33010KT
No reported NOTAMs for that airfield.



MET'MAP, your aeronautical weather chart ! - Copyright ORBIFLY December 2007 - Disclaimer

ORBIFLY MET'MAP TEAM :

Programming & Development : Alexandra Zaïnal
Concept & Development : Baudouin d'Aumeries
Co-Development & Prog : Marc-Olivier Méhu
Technical & hardware support : Manuel Goepfert

Contact : metmap@orbifly.com




SOURCES & CREDITS :

   NOAA